Terminal Aerodrome Forecast
Issued by NWS

Home | Current Version | Previous Version | Graphics & Text | Print | Product List | Glossary Off
Versions: 1 2 3 4 5 6 7 8 9 10 11 12 13 14 15 16 17 18 19 20 21 22 23

000
FTUS43 KGRB 011100
TAFATW
TAF
KATW 011124Z 0112/0212 28005KT P6SM SCT250
     FM011700 24006KT P6SM SCT050 SCT080
      TEMPO 0120/0124 3SM TSRA BKN035CB
     FM020100 VRB03KT P6SM SCT050
      TEMPO 0209/0212 4SM BR=

USA.gov is the U.S. government's official web portal to all federal, state and local government web resources and services.